createdAt,value
2019-04-06T00:00:41.845Z,92.70
2019-04-06T00:03:08.175Z,88.60
2019-04-06T00:05:34.674Z,92.43
2019-04-06T00:08:01.162Z,91.53
2019-04-06T00:10:27.571Z,94.50
2019-04-06T00:12:53.869Z,90.57
2019-04-06T00:15:20.322Z,94.40
2019-04-06T00:17:46.938Z,88.83
2019-04-06T00:20:13.548Z,83.20
2019-04-06T00:22:40.089Z,80.27
2019-04-06T00:25:06.943Z,93.07
2019-04-06T00:27:33.342Z,91.60
2019-04-06T00:30:20.197Z,82.43
2019-04-06T00:32:54.629Z,90.90
2019-04-06T00:35:20.929Z,91.93
2019-04-06T00:37:47.446Z,88.30
2019-04-06T00:40:14.139Z,80.13
2019-04-06T00:42:40.545Z,88.53
2019-04-06T00:45:07.563Z,90.30
2019-04-06T00:47:33.960Z,86.27
2019-04-06T00:50:00.383Z,88.90
2019-04-06T00:52:26.687Z,96.53
2019-04-06T00:54:53.080Z,102.93
2019-04-06T00:57:19.492Z,76.40
2019-04-06T00:59:45.915Z,98.10
2019-04-06T01:02:12.806Z,93.77
2019-04-06T01:04:39.322Z,96.70
2019-04-06T01:07:05.779Z,90.70
2019-04-06T01:09:32.307Z,86.50
2019-04-06T01:11:58.799Z,102.03
2019-04-06T01:14:25.394Z,99.83
2019-04-06T01:16:51.812Z,98.60
2019-04-06T01:19:18.197Z,97.10
2019-04-06T01:21:44.696Z,96.70
2019-04-06T01:24:10.959Z,92.90
2019-04-06T01:26:37.432Z,93.93
2019-04-06T01:29:04.009Z,91.73
2019-04-06T01:31:30.548Z,97.03
2019-04-06T01:33:59.034Z,94.43
2019-04-06T01:36:25.481Z,85.00
2019-04-06T01:38:52.023Z,82.57
2019-04-06T01:41:18.503Z,96.17
2019-04-06T01:43:44.883Z,101.77
2019-04-06T01:46:11.237Z,91.97
2019-04-06T01:48:37.697Z,95.27
2019-04-06T01:51:04.205Z,98.17
2019-04-06T01:53:30.504Z,95.10
2019-04-06T01:55:56.874Z,98.83
2019-04-06T01:58:23.298Z,94.23
2019-04-06T02:00:54.312Z,94.13
2019-04-06T02:03:20.652Z,94.13
2019-04-06T02:05:47.043Z,96.53
2019-04-06T02:08:13.334Z,94.47
2019-04-06T02:10:39.733Z,94.87
2019-04-06T02:13:06.242Z,91.30
2019-04-06T02:15:32.539Z,88.70
2019-04-06T02:17:58.835Z,135.70
2019-04-06T02:20:25.133Z,116.60
2019-04-06T02:22:51.416Z,112.40
2019-04-06T02:25:17.924Z,96.30
2019-04-06T02:27:44.315Z,82.70
2019-04-06T02:30:13.350Z,99.13
2019-04-06T02:32:56.869Z,89.30
2019-04-06T02:35:30.737Z,89.17
2019-04-06T02:38:15.889Z,93.23
2019-04-06T02:40:50.280Z,80.80
2019-04-06T02:43:18.476Z,93.27
2019-04-06T02:45:44.988Z,98.80
2019-04-06T02:48:11.270Z,101.00
2019-04-06T02:50:37.825Z,88.10
2019-04-06T02:53:04.297Z,102.60
2019-04-06T02:55:30.722Z,90.57
2019-04-06T02:57:57.191Z,100.70
2019-04-06T03:00:23.986Z,103.10
2019-04-06T03:02:50.578Z,92.20
2019-04-06T03:05:17.196Z,101.67
2019-04-06T03:07:43.667Z,98.83
2019-04-06T03:10:10.670Z,102.67
2019-04-06T03:12:37.217Z,104.00
2019-04-06T03:15:04.391Z,103.87
2019-04-06T03:17:30.654Z,101.97
2019-04-06T03:19:57.086Z,97.00
2019-04-06T03:22:23.395Z,106.73
2019-04-06T03:24:49.846Z,107.40
2019-04-06T03:27:16.265Z,103.90
2019-04-06T03:29:56.500Z,100.20
2019-04-06T03:32:10.953Z,104.73
2019-04-06T03:34:37.246Z,105.60
2019-04-06T03:37:03.969Z,95.33
2019-04-06T03:39:30.460Z,112.47
2019-04-06T03:41:56.772Z,104.33
2019-04-06T03:44:23.295Z,96.63
2019-04-06T03:46:49.661Z,99.77
2019-04-06T03:49:16.142Z,97.97
2019-04-06T03:51:42.824Z,96.20
2019-04-06T03:54:09.281Z,97.13
2019-04-06T03:56:35.595Z,90.87
2019-04-06T03:59:01.972Z,95.03
2019-04-06T04:01:28.556Z,98.93
2019-04-06T04:03:55.073Z,89.83
2019-04-06T04:06:21.546Z,92.73
2019-04-06T04:08:47.906Z,90.80
2019-04-06T04:11:14.404Z,91.93
2019-04-06T04:13:40.887Z,89.17
2019-04-06T04:16:07.399Z,83.17
2019-04-06T04:18:33.910Z,92.50
2019-04-06T04:21:00.462Z,84.93
2019-04-06T04:23:26.918Z,88.50
2019-04-06T04:25:53.299Z,94.87
2019-04-06T04:28:19.831Z,92.63
2019-04-06T04:30:46.327Z,94.33
2019-04-06T04:33:12.622Z,86.73
2019-04-06T04:35:38.908Z,89.07
2019-04-06T04:38:05.525Z,86.80
2019-04-06T04:40:32.140Z,92.77
2019-04-06T04:42:58.437Z,83.93
2019-04-06T04:45:24.820Z,81.07
2019-04-06T04:47:51.289Z,86.63
2019-04-06T04:50:17.985Z,85.33
2019-04-06T04:52:44.304Z,88.53
2019-04-06T04:55:10.784Z,86.27
2019-04-06T04:57:40.785Z,77.17
2019-04-06T05:00:06.220Z,71.93
2019-04-06T05:02:32.604Z,81.30
2019-04-06T05:04:58.989Z,86.87
2019-04-06T05:07:25.373Z,83.83
2019-04-06T05:09:51.780Z,84.43
2019-04-06T05:12:18.171Z,92.63
2019-04-06T05:15:06.285Z,86.37
2019-04-06T05:17:32.742Z,83.70
2019-04-06T05:19:59.285Z,92.33
2019-04-06T05:22:27.080Z,87.30
2019-04-06T05:24:53.699Z,91.27
2019-04-06T05:27:20.394Z,89.93
2019-04-06T05:29:47.000Z,90.23
2019-04-06T05:32:13.663Z,88.07
2019-04-06T05:34:40.148Z,87.23
2019-04-06T05:37:06.777Z,89.00
2019-04-06T05:39:33.351Z,89.03
2019-04-06T05:41:59.852Z,84.03
2019-04-06T05:44:26.291Z,86.17
2019-04-06T05:46:52.718Z,83.83
2019-04-06T05:49:19.010Z,80.70
2019-04-06T05:51:45.643Z,85.00
2019-04-06T05:54:11.888Z,92.07
2019-04-06T05:56:38.333Z,86.43
2019-04-06T05:59:04.699Z,92.07
2019-04-06T06:01:31.108Z,102.20
2019-04-06T06:03:57.599Z,87.23
2019-04-06T06:06:24.035Z,92.57
2019-04-06T06:08:50.420Z,84.23
2019-04-06T06:11:16.886Z,84.33
2019-04-06T06:13:43.180Z,79.93
2019-04-06T06:16:11.781Z,89.53
2019-04-06T06:18:38.228Z,97.43
2019-04-06T06:21:04.848Z,84.90
2019-04-06T06:23:31.293Z,97.20
2019-04-06T06:25:57.932Z,81.83
2019-04-06T06:28:24.296Z,89.17
2019-04-06T06:30:50.948Z,88.37
2019-04-06T06:33:17.341Z,86.27
2019-04-06T06:35:43.674Z,98.17
2019-04-06T06:38:10.119Z,96.53
2019-04-06T06:40:36.614Z,95.63
2019-04-06T06:43:03.225Z,99.73
2019-04-06T06:45:29.584Z,141.50
2019-04-06T06:47:56.088Z,100.20
2019-04-06T06:50:22.292Z,87.60
2019-04-06T06:52:48.829Z,89.97
2019-04-06T06:55:15.419Z,93.90
2019-04-06T06:57:41.855Z,86.50
2019-04-06T07:00:08.669Z,84.97
2019-04-06T07:02:35.308Z,85.60
2019-04-06T07:05:02.469Z,81.73
2019-04-06T07:07:28.983Z,85.23
2019-04-06T07:10:04.686Z,87.03
2019-04-06T07:12:23.932Z,93.57
2019-04-06T07:14:50.495Z,138.53
2019-04-06T07:17:16.901Z,143.87
2019-04-06T07:19:43.376Z,95.20
2019-04-06T07:22:09.852Z,94.33
2019-04-06T07:24:36.392Z,81.27
2019-04-06T07:27:02.987Z,93.43
2019-04-06T07:29:29.629Z,84.87
2019-04-06T07:31:56.091Z,86.00
2019-04-06T07:34:22.850Z,87.90
2019-04-06T07:36:49.404Z,89.63
2019-04-06T07:39:15.918Z,87.70
2019-04-06T07:41:42.440Z,86.37
2019-04-06T07:44:08.944Z,87.47
2019-04-06T07:46:35.324Z,180.70
2019-04-06T07:49:08.427Z,179.80
2019-04-06T07:51:30.704Z,102.47
2019-04-06T07:53:57.220Z,88.17
2019-04-06T07:56:23.813Z,85.87
2019-04-06T07:58:50.577Z,80.83
2019-04-06T08:01:17.036Z,81.43
2019-04-06T08:03:43.658Z,81.73
2019-04-06T08:06:10.124Z,78.77
2019-04-06T08:08:36.677Z,83.93
2019-04-06T08:11:03.303Z,81.33
2019-04-06T08:13:29.800Z,82.17
2019-04-06T08:15:56.242Z,78.83
2019-04-06T08:18:22.805Z,80.57
2019-04-06T08:20:49.564Z,71.37
2019-04-06T08:23:16.258Z,82.50
2019-04-06T08:25:42.855Z,78.83
2019-04-06T08:28:09.325Z,75.60
2019-04-06T08:30:44.701Z,81.33
2019-04-06T08:33:04.438Z,76.07
2019-04-06T08:35:30.837Z,83.53
2019-04-06T08:37:57.350Z,80.23
2019-04-06T08:40:23.903Z,78.50
2019-04-06T08:42:50.578Z,82.63
2019-04-06T08:45:16.983Z,76.27
2019-04-06T08:47:43.445Z,75.43
2019-04-06T08:50:10.401Z,80.73
2019-04-06T08:52:36.839Z,83.13
2019-04-06T08:55:05.159Z,83.27
2019-04-06T08:57:31.686Z,55.67
2019-04-06T08:59:58.349Z,59.33
2019-04-06T09:02:25.069Z,47.87
2019-04-06T09:04:51.683Z,47.17
2019-04-06T09:07:18.269Z,59.13
2019-04-06T09:09:44.564Z,60.97
2019-04-06T09:12:11.286Z,61.90
2019-04-06T09:14:37.660Z,54.10
2019-04-06T09:17:04.394Z,56.60
2019-04-06T09:19:30.938Z,59.87
2019-04-06T09:21:57.583Z,61.20
2019-04-06T09:24:44.003Z,54.27
2019-04-06T09:27:10.611Z,60.23
2019-04-06T09:29:37.274Z,61.63
2019-04-06T09:32:04.174Z,54.00
2019-04-06T09:34:31.349Z,60.10
2019-04-06T09:36:58.082Z,58.63
2019-04-06T09:39:24.622Z,55.30
2019-04-06T09:41:50.987Z,56.70
2019-04-06T09:44:19.624Z,64.03
2019-04-06T09:46:59.770Z,56.03
2019-04-06T09:49:37.055Z,59.27
2019-04-06T09:52:11.310Z,53.50
2019-04-06T09:54:48.667Z,52.43
2019-04-06T09:57:35.139Z,56.27
2019-04-06T10:00:06.036Z,50.60
2019-04-06T10:02:34.714Z,60.10
2019-04-06T10:05:06.738Z,61.70
2019-04-06T10:07:44.527Z,51.27
2019-04-06T10:10:29.713Z,55.87
2019-04-06T10:13:03.836Z,53.50
2019-04-06T10:15:38.273Z,51.83
2019-04-06T10:18:06.679Z,48.23
2019-04-06T10:20:35.153Z,52.77
2019-04-06T10:23:12.000Z,56.20
2019-04-06T10:25:52.459Z,50.67
2019-04-06T10:28:26.783Z,54.43
2019-04-06T10:30:58.075Z,57.67
2019-04-06T10:33:35.529Z,57.67
2019-04-06T10:36:04.198Z,64.00
2019-04-06T10:38:32.690Z,56.30
2019-04-06T10:41:03.557Z,64.13
2019-04-06T10:43:31.908Z,60.70
2019-04-06T10:46:15.220Z,63.37
2019-04-06T10:48:49.778Z,63.17
2019-04-06T10:51:20.878Z,60.33
2019-04-06T10:53:52.157Z,60.23
2019-04-06T10:56:23.526Z,63.33
2019-04-06T10:58:51.829Z,60.00
2019-04-06T11:01:20.119Z,59.83
2019-04-06T11:03:48.491Z,61.77
2019-04-06T11:06:17.364Z,59.30
2019-04-06T11:08:48.732Z,53.73
2019-04-06T11:11:20.768Z,54.23
2019-04-06T11:13:57.981Z,53.97
2019-04-06T11:16:43.629Z,52.73
2019-04-06T11:19:32.562Z,52.17
2019-04-06T11:22:01.332Z,54.27
2019-04-06T11:24:45.066Z,55.53
2019-04-06T11:27:28.390Z,53.67
2019-04-06T11:30:12.404Z,53.07
2019-04-06T11:32:46.756Z,49.83
2019-04-06T11:35:15.280Z,53.10
2019-04-06T11:37:52.762Z,53.07
2019-04-06T11:40:37.770Z,50.27
2019-04-06T11:43:21.286Z,50.73
2019-04-06T11:45:49.776Z,52.07
2019-04-06T11:48:24.831Z,53.83
2019-04-06T11:51:02.250Z,61.20
2019-04-06T11:53:39.784Z,62.07
2019-04-06T11:56:11.066Z,65.03
2019-04-06T11:58:48.231Z,60.23
2019-04-06T12:01:19.369Z,62.60
2019-04-06T12:04:05.866Z,60.27
2019-04-06T12:06:50.608Z,65.30
2019-04-06T12:09:18.918Z,61.47
2019-04-06T12:12:03.986Z,63.93
2019-04-06T12:14:49.562Z,64.17
2019-04-06T12:17:34.559Z,63.40
2019-04-06T12:20:05.624Z,67.90
2019-04-06T12:22:51.726Z,59.90
2019-04-06T12:25:37.037Z,65.40
2019-04-06T12:28:21.784Z,62.03
2019-04-06T12:30:53.279Z,58.77
2019-04-06T12:33:21.760Z,60.53
2019-04-06T12:35:53.270Z,67.43
2019-04-06T12:38:38.240Z,67.83
2019-04-06T12:41:15.929Z,66.77
2019-04-06T12:44:01.236Z,60.70
2019-04-06T12:46:32.543Z,64.40
2019-04-06T12:49:17.225Z,60.67
2019-04-06T12:52:02.751Z,65.63
2019-04-06T12:54:47.630Z,63.57
2019-04-06T12:57:21.755Z,58.43
2019-04-06T13:00:06.685Z,64.37
2019-04-06T13:02:51.500Z,58.50
2019-04-06T13:05:36.386Z,60.27
2019-04-06T13:08:16.860Z,61.50
2019-04-06T13:10:56.944Z,57.77
2019-04-06T13:13:37.655Z,61.77
2019-04-06T13:16:26.582Z,61.07
2019-04-06T13:18:55.457Z,61.13
2019-04-06T13:21:24.156Z,59.03
2019-04-06T13:24:07.809Z,59.80
2019-04-06T13:26:45.035Z,93.10
2019-04-06T13:29:16.245Z,87.53
2019-04-06T13:32:02.881Z,76.40
2019-04-06T13:34:40.618Z,63.03
2019-04-06T13:37:17.846Z,62.10
2019-04-06T13:39:55.122Z,60.07
2019-04-06T13:42:41.653Z,59.20
2019-04-06T13:45:10.283Z,62.07
2019-04-06T13:47:55.937Z,50.87
2019-04-06T13:50:30.292Z,37.60
2019-04-06T13:53:13.880Z,49.60
2019-04-06T13:55:45.277Z,47.47
2019-04-06T13:58:32.069Z,39.73
2019-04-06T14:01:14.490Z,51.10
2019-04-06T14:03:52.265Z,43.10
2019-04-06T14:06:29.595Z,49.53
2019-04-06T14:09:07.400Z,40.43
2019-04-06T14:11:38.905Z,45.33
2019-04-06T14:14:16.834Z,44.33
2019-04-06T14:17:03.490Z,44.87
2019-04-06T14:19:33.030Z,44.77
2019-04-06T14:22:07.660Z,50.07
2019-04-06T14:24:36.288Z,44.97
2019-04-06T14:27:16.796Z,49.03
2019-04-06T14:29:47.943Z,45.40
2019-04-06T14:32:31.226Z,47.00
2019-04-06T14:34:59.559Z,54.37
2019-04-06T14:37:45.935Z,38.27
2019-04-06T14:40:32.837Z,57.83
2019-04-06T14:43:19.395Z,42.07
2019-04-06T14:45:50.941Z,43.43
2019-04-06T14:48:34.535Z,45.00
2019-04-06T14:51:19.607Z,50.70
2019-04-06T14:53:48.152Z,44.13
2019-04-06T14:56:22.365Z,46.50
2019-04-06T14:58:53.654Z,40.40
2019-04-06T15:01:41.171Z,37.33
2019-04-06T15:04:10.828Z,49.70
2019-04-06T15:06:39.441Z,44.10
2019-04-06T15:09:15.813Z,57.33
2019-04-06T15:11:46.942Z,52.17
2019-04-06T15:14:27.436Z,54.47
2019-04-06T15:17:05.180Z,53.30
2019-04-06T15:19:50.520Z,54.23
2019-04-06T15:22:21.710Z,58.40
2019-04-06T15:25:08.041Z,57.40
2019-04-06T15:27:45.377Z,58.53
2019-04-06T15:30:26.119Z,55.23
2019-04-06T15:33:06.394Z,53.43
2019-04-06T15:35:35.203Z,56.03
2019-04-06T15:38:20.201Z,53.83
2019-04-06T15:40:51.416Z,54.87
2019-04-06T15:43:25.736Z,50.20
2019-04-06T15:46:00.393Z,51.87
2019-04-06T15:48:41.361Z,56.17
2019-04-06T15:51:21.817Z,54.20
2019-04-06T15:54:04.764Z,50.63
2019-04-06T15:56:33.234Z,52.40
2019-04-06T15:59:04.346Z,46.30
2019-04-06T16:01:54.247Z,44.87
2019-04-06T16:04:30.120Z,44.30
2019-04-06T16:07:04.703Z,46.37
2019-04-06T16:09:45.576Z,46.43
2019-04-06T16:12:32.179Z,39.77
2019-04-06T16:15:00.985Z,41.57
2019-04-06T16:17:35.295Z,41.17
2019-04-06T16:20:06.486Z,42.93
2019-04-06T16:22:35.197Z,43.53
2019-04-06T16:25:03.945Z,40.37
2019-04-06T16:27:41.524Z,39.27
2019-04-06T16:30:28.034Z,38.37
2019-04-06T16:32:56.559Z,47.67
2019-04-06T16:35:43.200Z,46.03
2019-04-06T16:38:27.926Z,45.97
2019-04-06T16:41:08.579Z,46.37
2019-04-06T16:43:55.255Z,43.70
2019-04-06T16:46:40.296Z,46.53
2019-04-06T16:49:25.969Z,45.83
2019-04-06T16:52:00.608Z,45.93
2019-04-06T16:54:31.973Z,47.80
2019-04-06T16:57:18.334Z,49.07
2019-04-06T17:00:17.077Z,47.03
2019-04-06T17:02:44.368Z,50.10
2019-04-06T17:05:25.307Z,51.23
2019-04-06T17:07:53.626Z,49.83
2019-04-06T17:10:24.750Z,49.73
2019-04-06T17:13:02.277Z,48.73
2019-04-06T17:15:42.595Z,52.50
2019-04-06T17:18:27.563Z,50.23
2019-04-06T17:20:56.034Z,50.93
2019-04-06T17:23:27.141Z,48.63
2019-04-06T17:26:07.328Z,46.90
2019-04-06T17:28:35.863Z,54.77
2019-04-06T17:31:20.842Z,54.53
2019-04-06T17:33:52.259Z,51.83
2019-04-06T17:36:26.448Z,47.63
2019-04-06T17:39:00.867Z,51.07
2019-04-06T17:41:45.846Z,54.33
2019-04-06T17:44:19.925Z,57.33
2019-04-06T17:46:54.127Z,49.70
2019-04-06T17:49:28.687Z,54.57
2019-04-06T17:52:03.100Z,57.90
2019-04-06T17:54:40.339Z,54.70
2019-04-06T17:57:08.779Z,53.00
2019-04-06T17:59:43.406Z,54.57
2019-04-06T18:02:12.250Z,52.77
2019-04-06T18:04:44.208Z,59.43
2019-04-06T18:07:15.666Z,53.83
2019-04-06T18:09:47.110Z,60.97
2019-04-06T18:12:34.200Z,51.93
2019-04-06T18:15:00.955Z,58.97
2019-04-06T18:17:28.081Z,64.27
2019-04-06T18:19:54.937Z,61.00
2019-04-06T18:22:21.807Z,58.50
2019-04-06T18:24:48.959Z,63.90
2019-04-06T18:27:15.580Z,59.60
2019-04-06T18:29:41.972Z,65.67
2019-04-06T18:32:24.886Z,60.17
2019-04-06T18:34:50.842Z,60.50
2019-04-06T18:37:19.349Z,61.70
2019-04-06T18:39:46.028Z,61.20
2019-04-06T18:42:12.577Z,60.83
2019-04-06T18:44:40.048Z,64.23
2019-04-06T18:47:07.402Z,61.47
2019-04-06T18:49:34.184Z,65.83
2019-04-06T18:52:00.746Z,67.07
2019-04-06T18:54:27.393Z,61.10
2019-04-06T18:56:53.949Z,60.97
2019-04-06T18:59:20.654Z,60.33
2019-04-06T19:01:47.243Z,62.10
2019-04-06T19:04:13.918Z,68.37
2019-04-06T19:06:40.599Z,64.20
2019-04-06T19:09:19.797Z,63.30
2019-04-06T19:11:36.303Z,70.53
2019-04-06T19:14:03.098Z,65.97
2019-04-06T19:16:29.821Z,63.77
2019-04-06T19:18:56.243Z,62.33
2019-04-06T19:21:22.994Z,61.63
2019-04-06T19:23:49.839Z,55.67
2019-04-06T19:26:16.632Z,57.93
2019-04-06T19:28:43.744Z,54.40
2019-04-06T19:31:10.480Z,57.17
2019-04-06T19:33:37.372Z,56.20
2019-04-06T19:36:04.354Z,58.67
2019-04-06T19:38:31.114Z,53.97
2019-04-06T19:40:57.691Z,53.67
2019-04-06T19:43:24.212Z,55.60
2019-04-06T19:45:51.345Z,53.97
2019-04-06T19:48:18.061Z,59.17
2019-04-06T19:50:44.836Z,53.83
2019-04-06T19:53:11.474Z,57.37
2019-04-06T19:55:38.274Z,52.07
2019-04-06T19:58:05.009Z,54.80
2019-04-06T20:00:31.800Z,53.37
2019-04-06T20:02:58.556Z,52.63
2019-04-06T20:05:25.162Z,51.23
2019-04-06T20:07:52.376Z,52.17
2019-04-06T20:10:19.421Z,49.83
2019-04-06T20:12:45.907Z,55.37
2019-04-06T20:15:13.256Z,56.40
2019-04-06T20:17:39.870Z,55.87
2019-04-06T20:20:06.937Z,53.07
2019-04-06T20:22:34.121Z,52.33
2019-04-06T20:25:01.653Z,51.10
2019-04-06T20:27:29.070Z,48.27
2019-04-06T20:29:55.641Z,54.30
2019-04-06T20:32:22.288Z,54.17
2019-04-06T20:34:49.363Z,52.03
2019-04-06T20:37:16.160Z,47.37
2019-04-06T20:39:42.878Z,49.93
2019-04-06T20:42:09.909Z,60.10
2019-04-06T20:44:36.371Z,56.93
2019-04-06T20:47:03.087Z,59.17
2019-04-06T20:49:29.748Z,56.60
2019-04-06T20:51:58.734Z,56.47
2019-04-06T20:54:24.883Z,57.37
2019-04-06T20:56:56.284Z,55.20
2019-04-06T20:59:19.886Z,53.63
2019-04-06T21:01:46.752Z,49.17
2019-04-06T21:04:13.415Z,47.17
2019-04-06T21:06:40.082Z,55.13
2019-04-06T21:09:08.922Z,49.77
2019-04-06T21:11:35.726Z,57.47
2019-04-06T21:14:02.450Z,55.60
2019-04-06T21:16:29.213Z,55.33
2019-04-06T21:18:55.732Z,52.80
2019-04-06T21:21:22.626Z,50.90
2019-04-06T21:23:49.391Z,55.43
2019-04-06T21:26:16.115Z,55.10
2019-04-06T21:28:42.844Z,52.10
2019-04-06T21:31:09.917Z,58.70
2019-04-06T21:33:36.661Z,52.63
2019-04-06T21:36:03.337Z,56.50
2019-04-06T21:38:29.749Z,53.07
2019-04-06T21:40:56.114Z,49.57
2019-04-06T21:43:22.547Z,52.93
2019-04-06T21:45:49.173Z,41.80
2019-04-06T21:48:16.122Z,43.20
2019-04-06T21:50:42.988Z,41.53
2019-04-06T21:53:10.605Z,45.47
2019-04-06T21:55:37.810Z,43.77
2019-04-06T21:58:04.499Z,56.80
2019-04-06T22:00:51.212Z,205.27
2019-04-06T22:03:18.269Z,79.67
2019-04-06T22:05:45.520Z,50.40
2019-04-06T22:08:13.102Z,38.50
2019-04-06T22:10:39.894Z,41.83
2019-04-06T22:13:06.683Z,40.77
2019-04-06T22:15:33.947Z,39.77
2019-04-06T22:18:01.143Z,45.27
2019-04-06T22:20:28.086Z,46.67
2019-04-06T22:22:54.601Z,46.00
2019-04-06T22:25:21.218Z,42.73
2019-04-06T22:27:47.836Z,43.70
2019-04-06T22:30:14.904Z,44.63
2019-04-06T22:32:41.496Z,40.33
2019-04-06T22:35:09.028Z,40.87
2019-04-06T22:37:35.832Z,39.63
2019-04-06T22:40:04.864Z,42.23
2019-04-06T22:42:31.693Z,45.30
2019-04-06T22:44:58.646Z,38.33
2019-04-06T22:47:25.359Z,38.00
2019-04-06T22:49:51.862Z,40.83
2019-04-06T22:52:18.495Z,38.63
2019-04-06T22:54:45.037Z,41.03
2019-04-06T22:57:11.448Z,39.07
2019-04-06T22:59:38.194Z,43.07
2019-04-06T23:02:05.465Z,39.30
2019-04-06T23:04:47.327Z,44.43
2019-04-06T23:07:07.515Z,43.17
2019-04-06T23:09:34.210Z,42.57
2019-04-06T23:12:00.806Z,39.10
2019-04-06T23:14:27.349Z,46.87
2019-04-06T23:16:54.090Z,43.90
2019-04-06T23:19:21.355Z,43.90
2019-04-06T23:21:47.753Z,39.73
2019-04-06T23:24:14.725Z,42.90
2019-04-06T23:26:41.268Z,43.20
2019-04-06T23:29:07.791Z,46.60
2019-04-06T23:31:34.372Z,49.40
2019-04-06T23:34:01.138Z,44.20
2019-04-06T23:36:27.707Z,41.57
2019-04-06T23:38:54.675Z,45.27
2019-04-06T23:41:21.003Z,39.67
2019-04-06T23:43:47.347Z,45.67
2019-04-06T23:46:14.155Z,42.83
2019-04-06T23:48:40.470Z,46.93
2019-04-06T23:51:07.829Z,43.23
2019-04-06T23:53:34.500Z,45.70
2019-04-06T23:56:01.225Z,42.33
2019-04-06T23:58:28.052Z,40.60
